This is the latest recevied weather packets stored in our database for station/object IK1PCD-11. If no packets are shown the sender has not sent any weather packets the latest 10 day(s).
| Time | Temp. | Humidity | Pressure | Rain* | Wind** | Luminosity | Snow |
|---|---|---|---|---|---|---|---|
| 1777418213 | 4.44° C | 94% | 1015.5 hPa | - | - | - | - |
| 1777417313 | 5° C | 97% | 1015.3 hPa | - | - | - | - |
| 1777416411 | 5° C | 98% | 1015.4 hPa | - | - | - | - |
| 1777415511 | 5.56° C | 100% | 1015.5 hPa | - | - | - | - |
| 1777414611 | 6.11° C | 100% | 1015.6 hPa | - | - | - | - |
| 1777413711 | 6.11° C | 100% | 1015.6 hPa | - | - | - | - |
| 1777412811 | 6.67° C | 99% | 1015.5 hPa | - | - | - | - |
| 1777411911 | 6.67° C | 98% | 1015.5 hPa | - | - | - | - |
| 1777411011 | 6.67° C | 96% | 1015.5 hPa | - | - | - | - |
| 1777410111 | 7.22° C | 94% | 1015.5 hPa | - | - | - | - |
| 1777409211 | 7.22° C | 93% | 1015.6 hPa | - | - | - | - |
| 1777408315 | 7.22° C | 93% | 1015.7 hPa | - | - | - | - |
| 1777407415 | 7.78° C | 90% | 1015.8 hPa | - | - | - | - |
| 1777406514 | 7.78° C | 90% | 1015.8 hPa | - | - | - | - |
| 1777405614 | 8.33° C | 87% | 1015.7 hPa | - | - | - | - |
| 1777404714 | 8.33° C | 86% | 1015.6 hPa | - | - | - | - |
| 1777403814 | 8.89° C | 85% | 1015.5 hPa | - | - | - | - |
| 1777402913 | 8.89° C | 82% | 1015.4 hPa | - | - | - | - |
| 1777402014 | 9.44° C | 77% | 1015.1 hPa | - | - | - | - |
| 1777401113 | 10.56° C | 73% | 1015.1 hPa | - | - | - | - |
| 1777400213 | 11.67° C | 65% | 1015 hPa | - | - | - | - |
| 1777399313 | 13.33° C | 58% | 1015 hPa | - | - | - | - |
| 1777398413 | 13.89° C | 56% | 1015.1 hPa | - | - | - | - |
| 1777397513 | 14.44° C | 54% | 1015 hPa | - | - | - | - |
| 1777396613 | 15° C | 54% | 1015.1 hPa | - | - | - | - |
* Rain since midnight (hover to see other rain measurements)
** Current wind speed in m/s (hover to see current wind gust speed)